createdAt,value
2017-12-27T00:00:15.822Z,982.65
2017-12-27T00:01:16.420Z,982.68
2017-12-27T00:02:17.022Z,982.61
2017-12-27T00:03:17.628Z,982.61
2017-12-27T00:04:18.234Z,982.56
2017-12-27T00:05:18.836Z,982.54
2017-12-27T00:06:19.440Z,982.59
2017-12-27T00:07:20.034Z,982.57
2017-12-27T00:08:20.630Z,982.57
2017-12-27T00:09:21.226Z,982.55
2017-12-27T00:10:21.825Z,982.61
2017-12-27T00:11:22.428Z,982.58
2017-12-27T00:12:23.033Z,982.51
2017-12-27T00:13:23.637Z,982.53
2017-12-27T00:14:24.242Z,982.46
2017-12-27T00:15:24.843Z,982.46
2017-12-27T00:16:25.432Z,982.36
2017-12-27T00:17:26.031Z,982.34
2017-12-27T00:18:26.619Z,982.35
2017-12-27T00:19:27.216Z,982.27
2017-12-27T00:20:27.829Z,982.30
2017-12-27T00:21:28.439Z,982.26
2017-12-27T00:22:29.048Z,982.18
2017-12-27T00:23:29.652Z,982.16
2017-12-27T00:24:30.257Z,982.07
2017-12-27T00:25:30.846Z,982.09
2017-12-27T00:26:31.452Z,982.00
2017-12-27T00:27:32.040Z,982.03
2017-12-27T00:28:32.644Z,981.99
2017-12-27T00:29:33.239Z,981.90
2017-12-27T00:30:33.837Z,981.85
2017-12-27T00:31:34.448Z,981.80
2017-12-27T00:32:35.057Z,981.83
2017-12-27T00:33:35.667Z,981.78
2017-12-27T00:34:36.270Z,981.75
2017-12-27T00:35:36.867Z,981.71
2017-12-27T00:36:37.465Z,981.63
2017-12-27T00:37:38.068Z,981.71
2017-12-27T00:38:38.672Z,981.70
2017-12-27T00:39:39.278Z,981.65
2017-12-27T00:40:39.907Z,981.73
2017-12-27T00:41:40.467Z,981.66
2017-12-27T00:42:41.068Z,981.68
2017-12-27T00:43:41.668Z,981.63
2017-12-27T00:44:42.266Z,981.60
2017-12-27T00:45:42.858Z,981.56
2017-12-27T00:46:43.461Z,981.51
2017-12-27T00:47:44.057Z,981.48
2017-12-27T00:48:44.661Z,981.47
2017-12-27T00:49:45.252Z,981.50
2017-12-27T00:50:45.848Z,981.39
2017-12-27T00:51:46.441Z,981.49
2017-12-27T00:52:47.038Z,981.45
2017-12-27T00:53:47.634Z,981.38
2017-12-27T00:54:48.234Z,981.34
2017-12-27T00:55:48.830Z,981.27
2017-12-27T00:56:49.430Z,981.23
2017-12-27T00:57:50.026Z,981.24
2017-12-27T00:58:50.634Z,981.28
2017-12-27T00:59:51.222Z,981.26
2017-12-27T01:01:36.038Z,981.23
2017-12-27T01:02:36.662Z,981.11
2017-12-27T01:03:37.267Z,981.12
2017-12-27T01:04:37.856Z,981.07
2017-12-27T01:05:38.456Z,981.15
2017-12-27T01:06:39.054Z,981.11
2017-12-27T01:07:39.653Z,981.07
2017-12-27T01:08:40.260Z,981.00
2017-12-27T01:09:40.864Z,980.98
2017-12-27T01:10:41.466Z,980.97
2017-12-27T01:11:42.060Z,981.05
2017-12-27T01:12:42.662Z,981.01
2017-12-27T01:13:43.258Z,980.98
2017-12-27T01:14:43.861Z,980.89
2017-12-27T01:15:44.470Z,980.89
2017-12-27T01:16:45.072Z,980.90
2017-12-27T01:17:45.678Z,980.84
2017-12-27T01:18:46.265Z,980.79
2017-12-27T01:19:46.860Z,980.80
2017-12-27T01:20:47.471Z,980.79
2017-12-27T01:21:48.072Z,980.75
2017-12-27T01:22:48.662Z,980.72
2017-12-27T01:23:49.260Z,980.64
2017-12-27T01:24:49.853Z,980.68
2017-12-27T01:25:50.451Z,980.66
2017-12-27T01:26:51.049Z,980.62
2017-12-27T01:27:51.658Z,980.57
2017-12-27T01:28:52.249Z,980.51
2017-12-27T01:29:52.844Z,980.45
2017-12-27T01:30:53.447Z,980.47
2017-12-27T01:31:54.037Z,980.52
2017-12-27T01:32:54.641Z,980.39
2017-12-27T01:33:55.232Z,980.39
2017-12-27T01:34:55.832Z,980.36
2017-12-27T01:35:56.424Z,980.29
2017-12-27T01:36:57.014Z,980.20
2017-12-27T01:37:57.609Z,980.14
2017-12-27T01:38:58.217Z,980.14
2017-12-27T01:39:58.812Z,980.07
2017-12-27T01:40:59.419Z,980.03
2017-12-27T01:42:00.011Z,980.05
2017-12-27T01:43:00.608Z,979.97
2017-12-27T01:44:01.212Z,979.98
2017-12-27T01:45:01.803Z,979.98
2017-12-27T01:46:02.400Z,979.93
2017-12-27T01:47:03.006Z,979.96
2017-12-27T01:48:03.610Z,979.87
2017-12-27T01:49:04.214Z,979.93
2017-12-27T01:50:04.821Z,979.88
2017-12-27T01:51:05.414Z,979.92
2017-12-27T01:52:06.026Z,979.86
2017-12-27T01:53:06.618Z,979.85
2017-12-27T01:54:07.222Z,979.88
2017-12-27T01:55:07.829Z,979.82
2017-12-27T01:56:08.418Z,979.72
2017-12-27T01:57:09.017Z,979.71
2017-12-27T01:58:09.612Z,979.68
2017-12-27T01:59:10.205Z,979.63
2017-12-27T02:00:10.813Z,979.53
2017-12-27T02:01:11.404Z,979.49
2017-12-27T02:02:12.004Z,979.48
2017-12-27T02:03:12.599Z,979.46
2017-12-27T02:04:13.211Z,979.43
2017-12-27T02:05:13.824Z,979.33
2017-12-27T02:06:14.413Z,979.35
2017-12-27T02:07:15.000Z,979.30
2017-12-27T02:08:15.600Z,979.26
2017-12-27T02:09:16.207Z,979.17
2017-12-27T02:10:16.810Z,979.12
2017-12-27T02:11:17.405Z,979.17
2017-12-27T02:12:18.010Z,979.06
2017-12-27T02:13:18.615Z,979.04
2017-12-27T02:14:19.221Z,978.99
2017-12-27T02:15:19.826Z,979.00
2017-12-27T02:16:20.421Z,978.92
2017-12-27T02:17:21.022Z,978.89
2017-12-27T02:18:21.613Z,978.87
2017-12-27T02:19:22.203Z,978.81
2017-12-27T02:20:22.806Z,978.81
2017-12-27T02:21:23.408Z,978.78
2017-12-27T02:22:24.003Z,978.79
2017-12-27T02:23:24.601Z,978.79
2017-12-27T02:24:25.202Z,978.72
2017-12-27T02:25:25.794Z,978.66
2017-12-27T02:26:26.389Z,978.63
2017-12-27T02:27:26.994Z,978.58
2017-12-27T02:28:27.586Z,978.53
2017-12-27T02:29:28.190Z,978.48
2017-12-27T02:30:28.790Z,978.51
2017-12-27T02:31:29.400Z,978.50
2017-12-27T02:32:30.013Z,978.48
2017-12-27T02:33:30.614Z,978.33
2017-12-27T02:34:31.202Z,978.35
2017-12-27T02:35:31.790Z,978.36
2017-12-27T02:36:32.396Z,978.34
2017-12-27T02:37:33.023Z,978.29
2017-12-27T02:38:33.581Z,978.27
2017-12-27T02:39:34.179Z,978.30
2017-12-27T02:40:34.790Z,978.34
2017-12-27T02:41:35.402Z,978.39
2017-12-27T02:42:36.004Z,978.34
2017-12-27T02:43:36.601Z,978.19
2017-12-27T02:44:37.433Z,978.09
2017-12-27T02:45:39.020Z,978.11
2017-12-27T02:46:39.618Z,978.16
2017-12-27T02:47:40.213Z,978.18
2017-12-27T02:48:40.802Z,978.06
2017-12-27T02:49:41.401Z,978.07
2017-12-27T02:50:42.009Z,978.00
2017-12-27T02:51:42.609Z,978.09
2017-12-27T02:52:43.199Z,978.00
2017-12-27T02:53:43.787Z,978.09
2017-12-27T02:54:44.390Z,978.00
2017-12-27T02:55:45.024Z,977.97
2017-12-27T02:56:45.592Z,977.92
2017-12-27T02:57:46.204Z,977.91
2017-12-27T02:58:46.808Z,977.90
2017-12-27T02:59:47.409Z,977.94
2017-12-27T03:00:47.998Z,977.90
2017-12-27T03:01:48.600Z,977.90
2017-12-27T03:02:49.204Z,977.88
2017-12-27T03:03:49.808Z,977.83
2017-12-27T03:04:50.398Z,977.76
2017-12-27T03:05:51.003Z,977.77
2017-12-27T03:06:51.592Z,977.80
2017-12-27T03:07:52.191Z,977.65
2017-12-27T03:08:52.798Z,977.60
2017-12-27T03:09:53.398Z,977.56
2017-12-27T03:10:53.998Z,977.53
2017-12-27T03:11:54.586Z,977.45
2017-12-27T03:12:55.193Z,977.48
2017-12-27T03:13:55.803Z,977.42
2017-12-27T03:14:56.416Z,977.36
2017-12-27T03:15:57.004Z,977.36
2017-12-27T03:16:57.602Z,977.32
2017-12-27T03:17:58.191Z,977.29
2017-12-27T03:18:58.801Z,977.21
2017-12-27T03:19:59.402Z,977.20
2017-12-27T03:20:59.999Z,977.19
2017-12-27T03:22:00.601Z,977.17
2017-12-27T03:23:01.212Z,977.17
2017-12-27T03:24:01.809Z,977.18
2017-12-27T03:25:02.414Z,977.10
2017-12-27T03:26:03.015Z,977.04
2017-12-27T03:27:03.611Z,977.05
2017-12-27T03:28:04.211Z,976.99
2017-12-27T03:29:04.810Z,976.96
2017-12-27T03:30:05.408Z,976.94
2017-12-27T03:31:06.009Z,976.96
2017-12-27T03:32:06.599Z,976.89
2017-12-27T03:33:07.200Z,976.87
2017-12-27T03:34:07.815Z,976.89
2017-12-27T03:35:08.401Z,976.81
2017-12-27T03:36:09.002Z,976.85
2017-12-27T03:37:09.603Z,976.81
2017-12-27T03:38:10.211Z,976.78
2017-12-27T03:39:10.810Z,976.73
2017-12-27T03:40:11.406Z,976.70
2017-12-27T03:41:12.001Z,976.66
2017-12-27T03:42:12.606Z,976.59
2017-12-27T03:43:13.208Z,976.63
2017-12-27T03:44:13.811Z,976.57
2017-12-27T03:45:14.415Z,976.59
2017-12-27T03:46:15.011Z,976.56
2017-12-27T03:47:15.609Z,976.45
2017-12-27T03:48:16.216Z,976.37
2017-12-27T03:49:16.820Z,976.33
2017-12-27T03:50:17.421Z,976.35
2017-12-27T03:51:18.021Z,976.36
2017-12-27T03:52:18.617Z,976.37
2017-12-27T03:53:19.216Z,976.40
2017-12-27T03:54:19.812Z,976.33
2017-12-27T03:55:20.418Z,976.34
2017-12-27T03:56:21.011Z,976.31
2017-12-27T03:57:21.610Z,976.32
2017-12-27T03:58:22.213Z,976.28
2017-12-27T03:59:22.814Z,976.25
2017-12-27T04:00:23.416Z,976.31
2017-12-27T04:01:24.026Z,976.27
2017-12-27T04:02:24.621Z,976.27
2017-12-27T04:03:25.236Z,976.19
2017-12-27T04:04:25.839Z,976.12
2017-12-27T04:05:26.443Z,976.18
2017-12-27T04:06:27.032Z,976.13
2017-12-27T04:07:27.627Z,976.11
2017-12-27T04:08:28.224Z,976.17
2017-12-27T04:09:28.829Z,976.11
2017-12-27T04:10:29.434Z,976.07
2017-12-27T04:11:30.035Z,976.06
2017-12-27T04:12:30.633Z,976.08
2017-12-27T04:13:31.234Z,976.12
2017-12-27T04:14:31.826Z,976.13
2017-12-27T04:15:32.424Z,976.13
2017-12-27T04:16:33.022Z,976.11
2017-12-27T04:17:33.610Z,976.17
2017-12-27T04:18:34.215Z,976.21
2017-12-27T04:19:34.825Z,976.14
2017-12-27T04:20:35.433Z,976.10
2017-12-27T04:21:36.022Z,976.07
2017-12-27T04:22:36.626Z,976.03
2017-12-27T04:23:37.214Z,976.10
2017-12-27T04:24:37.813Z,976.01
2017-12-27T04:25:38.418Z,976.00
2017-12-27T04:26:39.023Z,975.97
2017-12-27T04:27:39.626Z,976.03
2017-12-27T04:28:40.226Z,975.95
2017-12-27T04:29:40.817Z,975.97
2017-12-27T04:30:41.410Z,975.90
2017-12-27T04:31:42.008Z,975.92
2017-12-27T04:32:42.596Z,975.91
2017-12-27T04:33:43.204Z,975.91
2017-12-27T04:34:43.793Z,975.89
2017-12-27T04:35:44.397Z,975.83
2017-12-27T04:36:44.991Z,975.80
2017-12-27T04:37:45.597Z,975.88
2017-12-27T04:38:46.193Z,975.77
2017-12-27T04:39:46.798Z,975.79
2017-12-27T04:40:47.404Z,975.79
2017-12-27T04:41:48.011Z,975.75
2017-12-27T04:42:48.612Z,975.73
2017-12-27T04:43:49.207Z,975.75
2017-12-27T04:44:49.801Z,975.72
2017-12-27T04:45:50.401Z,975.66
2017-12-27T04:46:51.007Z,975.67
2017-12-27T04:47:51.598Z,975.58
2017-12-27T04:48:52.192Z,975.52
2017-12-27T04:49:52.790Z,975.54
2017-12-27T04:50:53.404Z,975.47
2017-12-27T04:51:54.007Z,975.44
2017-12-27T04:52:54.602Z,975.43
2017-12-27T04:53:55.199Z,975.40
2017-12-27T04:54:55.807Z,975.38
2017-12-27T04:55:56.411Z,975.36
2017-12-27T04:56:57.018Z,975.33
2017-12-27T04:57:57.613Z,975.30
2017-12-27T04:58:58.211Z,975.38
2017-12-27T04:59:58.816Z,975.35
2017-12-27T05:00:59.414Z,975.24
2017-12-27T05:01:59.999Z,975.23
2017-12-27T05:03:00.595Z,975.27
2017-12-27T05:04:01.195Z,975.16
2017-12-27T05:05:01.791Z,975.18
2017-12-27T05:06:02.380Z,975.15
2017-12-27T05:07:02.969Z,975.12
2017-12-27T05:08:03.571Z,975.12
2017-12-27T05:09:04.168Z,975.14
2017-12-27T05:10:04.765Z,975.15
2017-12-27T05:11:05.373Z,975.23
2017-12-27T05:12:05.974Z,975.05
2017-12-27T05:13:06.584Z,975.00
2017-12-27T05:14:07.173Z,974.98
2017-12-27T05:15:07.770Z,974.99
2017-12-27T05:16:08.370Z,975.02
2017-12-27T05:17:08.965Z,975.02
2017-12-27T05:18:09.558Z,974.98
2017-12-27T05:19:10.156Z,975.00
2017-12-27T05:20:10.771Z,974.96
2017-12-27T05:21:11.385Z,974.97
2017-12-27T05:22:11.980Z,974.90
2017-12-27T05:23:12.594Z,974.90
2017-12-27T05:24:13.202Z,974.88
2017-12-27T05:25:13.805Z,974.79
2017-12-27T05:26:14.412Z,974.76
2017-12-27T05:27:15.025Z,974.80
2017-12-27T05:28:15.627Z,974.79
2017-12-27T05:29:16.223Z,974.80
2017-12-27T05:30:16.812Z,974.80
2017-12-27T05:31:17.401Z,974.79
2017-12-27T05:32:18.008Z,974.81
2017-12-27T05:33:18.601Z,974.83
2017-12-27T05:34:19.199Z,974.80
2017-12-27T05:35:19.803Z,974.82
2017-12-27T05:36:20.393Z,974.78
2017-12-27T05:37:20.992Z,974.85
2017-12-27T05:38:21.589Z,974.80
2017-12-27T05:39:22.183Z,974.80
2017-12-27T05:40:22.771Z,974.85
2017-12-27T05:41:23.372Z,974.78
2017-12-27T05:42:23.976Z,974.73
2017-12-27T05:43:24.581Z,974.72
2017-12-27T05:44:25.186Z,974.70
2017-12-27T05:45:25.797Z,974.78
2017-12-27T05:46:26.400Z,974.72
2017-12-27T05:47:26.993Z,974.65
2017-12-27T05:48:27.596Z,974.63
2017-12-27T05:49:28.189Z,974.67
2017-12-27T05:50:28.788Z,974.64
2017-12-27T05:51:29.387Z,974.60
2017-12-27T05:52:29.984Z,974.66
2017-12-27T05:53:30.585Z,974.65
2017-12-27T05:54:31.191Z,974.60
2017-12-27T05:55:31.792Z,974.83
2017-12-27T05:56:32.396Z,974.65
2017-12-27T05:57:32.989Z,974.55
2017-12-27T05:58:33.595Z,974.61
2017-12-27T05:59:34.198Z,974.63
2017-12-27T06:00:34.800Z,974.60
2017-12-27T06:01:35.397Z,974.63
2017-12-27T06:02:35.989Z,974.63
2017-12-27T06:03:36.579Z,974.57
2017-12-27T06:04:37.165Z,974.60
2017-12-27T06:05:37.769Z,974.60
2017-12-27T06:06:38.372Z,974.47
2017-12-27T06:07:38.976Z,974.58
2017-12-27T06:08:39.570Z,974.47
2017-12-27T06:09:40.174Z,974.57
2017-12-27T06:10:40.765Z,974.44
2017-12-27T06:11:41.366Z,974.54
2017-12-27T06:12:41.961Z,974.45
2017-12-27T06:13:42.550Z,974.53
2017-12-27T06:14:43.159Z,974.46
2017-12-27T06:15:43.802Z,974.49
2017-12-27T06:16:44.362Z,974.41
2017-12-27T06:17:44.959Z,974.41
2017-12-27T06:18:45.571Z,974.42
2017-12-27T06:19:46.174Z,974.43
2017-12-27T06:20:46.776Z,974.41
2017-12-27T06:21:47.379Z,974.39
2017-12-27T06:22:47.979Z,974.43
2017-12-27T06:23:48.571Z,974.45
2017-12-27T06:24:49.176Z,974.51
2017-12-27T06:25:49.774Z,974.46
2017-12-27T06:26:50.374Z,974.55
2017-12-27T06:27:50.982Z,974.46
2017-12-27T06:28:51.591Z,974.45
2017-12-27T06:29:52.200Z,974.50
2017-12-27T06:30:52.793Z,974.46
2017-12-27T06:31:53.393Z,974.47
2017-12-27T06:32:53.991Z,974.45
2017-12-27T06:33:54.589Z,974.46
2017-12-27T06:34:55.187Z,974.37
2017-12-27T06:35:55.798Z,974.33
2017-12-27T06:36:56.386Z,974.30
2017-12-27T06:37:56.984Z,974.33
2017-12-27T06:38:57.576Z,974.19
2017-12-27T06:39:58.176Z,974.33
2017-12-27T06:40:58.777Z,974.26
2017-12-27T06:41:59.392Z,974.26
2017-12-27T06:42:59.996Z,974.18
2017-12-27T06:44:00.586Z,974.32
2017-12-27T06:45:01.189Z,974.21
2017-12-27T06:46:01.846Z,974.33
2017-12-27T06:47:02.390Z,974.25
2017-12-27T06:48:02.987Z,974.26
2017-12-27T06:49:03.594Z,974.21
2017-12-27T06:50:04.199Z,974.22
2017-12-27T06:51:04.807Z,974.24
2017-12-27T06:52:05.402Z,974.18
2017-12-27T06:53:05.990Z,974.20
2017-12-27T06:54:06.598Z,974.27
2017-12-27T06:55:07.251Z,974.19
2017-12-27T06:56:07.805Z,974.25
2017-12-27T06:57:08.416Z,974.16
2017-12-27T06:58:09.002Z,974.17
2017-12-27T06:59:09.600Z,974.11
2017-12-27T07:00:10.204Z,974.14
2017-12-27T07:01:10.789Z,974.15
2017-12-27T07:02:11.391Z,974.16
2017-12-27T07:03:11.988Z,974.15
2017-12-27T07:04:12.595Z,974.11
2017-12-27T07:05:13.204Z,974.07
2017-12-27T07:06:13.791Z,974.11
2017-12-27T07:07:14.399Z,974.15
2017-12-27T07:08:14.993Z,974.12
2017-12-27T07:09:15.584Z,974.04
2017-12-27T07:10:16.185Z,974.04
2017-12-27T07:11:16.785Z,974.09
2017-12-27T07:12:17.388Z,974.10
2017-12-27T07:13:17.979Z,974.13
2017-12-27T07:14:18.579Z,974.03
2017-12-27T07:15:19.218Z,974.05
2017-12-27T07:16:19.794Z,974.05
2017-12-27T07:17:20.382Z,974.07
2017-12-27T07:18:20.971Z,973.86
2017-12-27T07:19:21.572Z,973.98
2017-12-27T07:20:22.175Z,974.03
2017-12-27T07:21:22.766Z,974.02
2017-12-27T07:22:23.356Z,974.12
2017-12-27T07:23:23.963Z,973.98
2017-12-27T07:24:24.567Z,973.98
2017-12-27T07:25:25.164Z,974.02
2017-12-27T07:26:25.764Z,973.99
2017-12-27T07:27:26.359Z,973.96
2017-12-27T07:28:26.956Z,974.03
2017-12-27T07:29:27.559Z,973.97
2017-12-27T07:30:28.157Z,973.97
2017-12-27T07:31:28.770Z,973.96
2017-12-27T07:32:29.367Z,973.93
2017-12-27T07:33:29.981Z,973.75
2017-12-27T07:34:30.593Z,973.91
2017-12-27T07:35:31.186Z,973.87
2017-12-27T07:36:31.785Z,973.84
2017-12-27T07:37:32.391Z,973.88
2017-12-27T07:38:32.995Z,973.87
2017-12-27T07:39:33.586Z,973.85
2017-12-27T07:40:34.196Z,973.87
2017-12-27T07:41:34.794Z,973.90
2017-12-27T07:42:35.382Z,973.88
2017-12-27T07:43:35.984Z,973.90
2017-12-27T07:44:36.604Z,973.86
2017-12-27T07:45:37.192Z,973.87
2017-12-27T07:46:37.789Z,973.86
2017-12-27T07:47:38.378Z,973.86
2017-12-27T07:48:38.983Z,973.88
2017-12-27T07:49:39.583Z,973.83
2017-12-27T07:50:40.187Z,973.88
2017-12-27T07:51:40.777Z,973.93
2017-12-27T07:52:41.370Z,973.86
2017-12-27T07:53:41.960Z,973.93
2017-12-27T07:54:42.558Z,973.86
2017-12-27T07:55:43.165Z,973.92
2017-12-27T07:56:43.785Z,973.85
2017-12-27T07:57:44.387Z,973.89
2017-12-27T07:58:44.983Z,973.89
2017-12-27T07:59:45.592Z,973.78
2017-12-27T08:00:46.191Z,973.76
2017-12-27T08:01:46.790Z,973.75
2017-12-27T08:02:47.398Z,973.72
2017-12-27T08:03:48.003Z,973.78
2017-12-27T08:04:48.597Z,973.75
2017-12-27T08:05:49.231Z,973.75
2017-12-27T08:06:49.818Z,973.75
2017-12-27T08:07:50.418Z,973.71
2017-12-27T08:08:51.024Z,973.64
2017-12-27T08:09:51.632Z,973.70
2017-12-27T08:10:52.233Z,973.71
2017-12-27T08:11:52.848Z,973.70
2017-12-27T08:12:53.442Z,973.72
2017-12-27T08:13:54.046Z,973.65
2017-12-27T08:14:54.652Z,973.64
2017-12-27T08:15:55.256Z,973.67
2017-12-27T08:16:55.865Z,973.68
2017-12-27T08:17:56.474Z,973.67
2017-12-27T08:18:57.077Z,973.69
2017-12-27T08:19:57.672Z,973.61
2017-12-27T08:20:58.273Z,973.66
2017-12-27T08:21:58.880Z,973.66
2017-12-27T08:22:59.477Z,973.65
2017-12-27T08:24:00.072Z,973.66
2017-12-27T08:25:00.683Z,973.70
2017-12-27T08:26:01.304Z,973.72
2017-12-27T08:27:01.916Z,973.68
2017-12-27T08:28:02.531Z,973.62
2017-12-27T08:29:03.117Z,973.77
2017-12-27T08:30:03.719Z,973.74
2017-12-27T08:31:04.316Z,973.70
2017-12-27T08:32:04.915Z,973.73
2017-12-27T08:33:05.520Z,973.70
2017-12-27T08:34:06.127Z,973.75
2017-12-27T08:35:06.724Z,973.73
2017-12-27T08:36:07.324Z,973.75
2017-12-27T08:37:07.930Z,973.76
2017-12-27T08:38:08.533Z,973.73
2017-12-27T08:39:09.142Z,973.78
2017-12-27T08:40:09.745Z,973.79
2017-12-27T08:41:10.337Z,973.75
2017-12-27T08:42:10.946Z,973.69
2017-12-27T08:43:11.548Z,973.73
2017-12-27T08:44:12.164Z,973.74
2017-12-27T08:45:12.779Z,973.76
2017-12-27T08:46:13.394Z,973.71
2017-12-27T08:47:13.988Z,973.74
2017-12-27T08:48:14.582Z,973.68
2017-12-27T08:49:15.198Z,973.77
2017-12-27T08:50:15.805Z,973.75
2017-12-27T08:51:16.406Z,973.72
2017-12-27T08:52:17.006Z,973.73
2017-12-27T08:53:17.617Z,973.74
2017-12-27T08:54:18.213Z,973.73
2017-12-27T08:55:18.813Z,973.73
2017-12-27T08:56:19.406Z,973.72
2017-12-27T08:57:19.998Z,973.74
2017-12-27T08:58:20.594Z,973.73
2017-12-27T08:59:21.204Z,973.71
2017-12-27T09:00:21.799Z,973.71
2017-12-27T09:01:22.400Z,973.73
2017-12-27T09:02:23.003Z,973.79
2017-12-27T09:03:23.615Z,973.75
2017-12-27T09:04:24.207Z,973.80
2017-12-27T09:05:24.811Z,973.77
2017-12-27T09:06:25.420Z,973.76
2017-12-27T09:07:26.024Z,973.75
2017-12-27T09:08:26.628Z,973.82
2017-12-27T09:09:27.231Z,973.84
2017-12-27T09:10:27.841Z,973.81
2017-12-27T09:11:28.475Z,973.84
2017-12-27T09:12:29.071Z,973.86
2017-12-27T09:13:29.671Z,973.91
2017-12-27T09:14:30.337Z,973.86
2017-12-27T09:15:30.901Z,973.92
2017-12-27T09:16:31.500Z,973.91
2017-12-27T09:17:32.106Z,973.87
2017-12-27T09:18:32.711Z,973.88
2017-12-27T09:19:33.315Z,973.91
2017-12-27T09:20:33.926Z,973.92
2017-12-27T09:21:34.535Z,973.92
2017-12-27T09:22:35.145Z,973.93
2017-12-27T09:23:35.761Z,973.95
2017-12-27T09:24:36.374Z,973.94
2017-12-27T09:25:36.985Z,973.89
2017-12-27T09:26:37.588Z,973.95
2017-12-27T09:27:38.189Z,973.89
2017-12-27T09:28:38.802Z,973.95
2017-12-27T09:29:39.410Z,973.95
2017-12-27T09:30:40.012Z,973.97
2017-12-27T09:31:40.827Z,973.98
2017-12-27T09:32:41.436Z,973.95
2017-12-27T09:33:42.054Z,974.01
2017-12-27T09:34:42.654Z,974.01
2017-12-27T09:35:43.258Z,973.99
2017-12-27T09:36:43.850Z,973.99
2017-12-27T09:37:44.455Z,973.87
2017-12-27T09:38:45.065Z,973.92
2017-12-27T09:39:45.672Z,973.98
2017-12-27T09:40:46.280Z,973.97
2017-12-27T09:41:46.893Z,974.01
2017-12-27T09:42:47.512Z,974.00
2017-12-27T09:43:48.123Z,973.99
2017-12-27T09:44:48.714Z,974.01
2017-12-27T09:45:49.315Z,974.01
2017-12-27T09:46:49.920Z,974.01
2017-12-27T09:47:50.520Z,974.03
2017-12-27T09:48:51.136Z,974.01
2017-12-27T09:49:51.752Z,974.07
2017-12-27T09:50:52.366Z,974.01
2017-12-27T09:51:52.967Z,974.01
2017-12-27T09:52:53.563Z,974.02
2017-12-27T09:53:54.173Z,974.01
2017-12-27T09:54:54.787Z,974.03
2017-12-27T09:55:55.381Z,974.01
2017-12-27T09:56:55.975Z,973.98
2017-12-27T09:57:56.565Z,974.02
2017-12-27T09:58:57.168Z,973.98
2017-12-27T09:59:57.772Z,974.02
2017-12-27T10:00:58.374Z,974.01
2017-12-27T10:01:58.976Z,973.91
2017-12-27T10:02:59.586Z,973.93
2017-12-27T10:04:00.199Z,973.99
2017-12-27T10:05:00.803Z,973.99
2017-12-27T10:06:01.418Z,973.97
2017-12-27T10:07:02.006Z,973.99
2017-12-27T10:08:02.604Z,974.04
2017-12-27T10:09:03.198Z,974.05
2017-12-27T10:10:03.814Z,974.11
2017-12-27T10:11:04.422Z,974.11
2017-12-27T10:12:05.026Z,974.08
2017-12-27T10:13:05.625Z,974.09
2017-12-27T10:14:06.226Z,974.07
2017-12-27T10:15:06.830Z,974.08
2017-12-27T10:16:07.438Z,974.09
2017-12-27T10:17:08.055Z,974.07
2017-12-27T10:18:08.668Z,974.07
2017-12-27T10:19:09.264Z,974.03
2017-12-27T10:20:09.869Z,974.07
2017-12-27T10:21:10.462Z,974.09
2017-12-27T10:22:11.059Z,974.08
2017-12-27T10:23:11.667Z,974.04
2017-12-27T10:24:12.281Z,974.08
2017-12-27T10:25:12.889Z,974.04
2017-12-27T10:26:13.494Z,974.06
2017-12-27T10:27:14.097Z,974.09
2017-12-27T10:28:14.727Z,974.09
2017-12-27T10:29:15.345Z,974.11
2017-12-27T10:30:15.957Z,974.11
2017-12-27T10:31:16.561Z,974.08
2017-12-27T10:32:17.173Z,974.08
2017-12-27T10:33:17.780Z,974.09
2017-12-27T10:34:18.372Z,974.02
2017-12-27T10:35:18.978Z,973.98
2017-12-27T10:36:19.589Z,973.90
2017-12-27T10:37:20.194Z,973.85
2017-12-27T10:38:20.803Z,973.83
2017-12-27T10:39:21.403Z,973.82
2017-12-27T10:40:22.005Z,973.82
2017-12-27T10:41:22.608Z,973.81
2017-12-27T10:42:23.205Z,973.78
2017-12-27T10:43:23.803Z,973.87
2017-12-27T10:44:24.408Z,973.89
2017-12-27T10:45:25.014Z,973.87
2017-12-27T10:46:25.631Z,973.87
2017-12-27T10:47:26.242Z,973.85
2017-12-27T10:48:26.847Z,973.84
2017-12-27T10:49:27.461Z,973.90
2017-12-27T10:50:28.061Z,973.88
2017-12-27T10:51:28.670Z,973.87
2017-12-27T10:52:29.274Z,973.87
2017-12-27T10:53:29.881Z,973.84
2017-12-27T10:54:30.708Z,973.86
2017-12-27T10:55:31.312Z,973.88
2017-12-27T10:56:31.917Z,973.87
2017-12-27T10:57:32.535Z,973.80
2017-12-27T10:58:33.138Z,973.77
2017-12-27T10:59:33.757Z,973.82
2017-12-27T11:00:34.356Z,973.84
2017-12-27T11:01:34.970Z,973.84
2017-12-27T11:02:35.581Z,973.81
2017-12-27T11:03:36.186Z,973.78
2017-12-27T11:04:36.794Z,973.78
2017-12-27T11:05:37.407Z,973.78
2017-12-27T11:06:38.018Z,973.78
2017-12-27T11:07:38.617Z,973.74
2017-12-27T11:08:39.228Z,973.75
2017-12-27T11:09:39.852Z,973.76
2017-12-27T11:10:40.464Z,973.77
2017-12-27T11:11:41.086Z,973.79
2017-12-27T11:12:41.673Z,973.74
2017-12-27T11:13:42.281Z,973.72
2017-12-27T11:14:42.883Z,973.77
2017-12-27T11:15:43.492Z,973.73
2017-12-27T11:16:44.103Z,973.72
2017-12-27T11:17:44.718Z,973.70
2017-12-27T11:18:45.332Z,973.77
2017-12-27T11:19:45.928Z,973.76
2017-12-27T11:20:46.523Z,973.78
2017-12-27T11:21:47.133Z,973.79
2017-12-27T11:22:47.757Z,973.80
2017-12-27T11:23:48.367Z,973.84
2017-12-27T11:24:48.984Z,973.79
2017-12-27T11:25:49.582Z,973.76
2017-12-27T11:26:50.187Z,973.75
2017-12-27T11:27:50.789Z,973.71
2017-12-27T11:28:51.410Z,973.73
2017-12-27T11:29:52.008Z,973.79
2017-12-27T11:30:52.613Z,973.76
2017-12-27T11:31:53.234Z,973.76
2017-12-27T11:32:53.844Z,973.75
2017-12-27T11:33:54.459Z,973.74
2017-12-27T11:34:55.070Z,973.71
2017-12-27T11:35:55.681Z,973.70
2017-12-27T11:36:56.291Z,973.70
2017-12-27T11:37:56.897Z,973.77
2017-12-27T11:38:57.508Z,973.71
2017-12-27T11:39:58.116Z,973.72
2017-12-27T11:40:58.735Z,973.73
2017-12-27T11:41:59.332Z,973.71
2017-12-27T11:42:59.942Z,973.74
2017-12-27T11:44:00.547Z,973.71
2017-12-27T11:45:01.159Z,973.66
2017-12-27T11:46:01.761Z,973.71
2017-12-27T11:47:02.379Z,973.74
2017-12-27T11:48:02.991Z,973.69
2017-12-27T11:49:03.598Z,973.66
2017-12-27T11:50:04.204Z,973.65
2017-12-27T11:51:04.807Z,973.65
2017-12-27T11:52:05.416Z,973.64
2017-12-27T11:53:06.031Z,973.58
2017-12-27T11:54:06.648Z,973.64
2017-12-27T11:55:07.273Z,973.60
2017-12-27T11:56:07.889Z,973.58
2017-12-27T11:57:08.507Z,973.55
2017-12-27T11:58:09.107Z,973.56
2017-12-27T11:59:09.712Z,973.50
2017-12-27T12:00:10.312Z,973.52
2017-12-27T12:01:10.925Z,973.48
2017-12-27T12:02:11.552Z,973.54
2017-12-27T12:03:12.163Z,973.46
2017-12-27T12:04:12.770Z,973.45
2017-12-27T12:05:13.381Z,973.49
2017-12-27T12:06:13.991Z,973.44
2017-12-27T12:07:14.595Z,973.42
2017-12-27T12:08:15.202Z,973.40
2017-12-27T12:09:15.804Z,973.41
2017-12-27T12:10:16.413Z,973.43
2017-12-27T12:11:17.018Z,973.42
2017-12-27T12:12:17.614Z,973.43
2017-12-27T12:13:18.213Z,973.40
2017-12-27T12:14:18.816Z,973.39
2017-12-27T12:15:19.420Z,973.39
2017-12-27T12:16:20.041Z,973.35
2017-12-27T12:17:20.641Z,973.38
2017-12-27T12:18:21.242Z,973.38
2017-12-27T12:19:21.844Z,973.39
2017-12-27T12:20:22.453Z,973.38
2017-12-27T12:21:23.069Z,973.35
2017-12-27T12:22:23.675Z,973.37
2017-12-27T12:23:24.315Z,973.36
2017-12-27T12:24:24.896Z,973.33
2017-12-27T12:25:25.512Z,973.33
2017-12-27T12:26:26.122Z,973.35
2017-12-27T12:27:26.766Z,973.33
2017-12-27T12:28:27.335Z,973.36
2017-12-27T12:29:27.946Z,973.33
2017-12-27T12:30:28.562Z,973.36
2017-12-27T12:31:29.175Z,973.35
2017-12-27T12:32:29.783Z,973.32
2017-12-27T12:33:30.396Z,973.34
2017-12-27T12:34:31.003Z,973.30
2017-12-27T12:35:31.612Z,973.35
2017-12-27T12:36:32.225Z,973.35